WetterOnline ( https://www.wetteronline.de )

Wetter aktuell Harbke

Aktuelles Wetter: Ummendorf (163m)

6-stündlich | Neueste Meldungen
Ortszeit Temperatur Wetter
Di, 20.10. 2:00 5.5° C leicht bewölkt
Mo, 19.10. 20:00 8.1° C leicht bewölkt
Mo, 19.10. 14:00 11.4° C bewölkt
Mo, 19.10. 8:00 6.6° C bedeckt
Mo, 19.10. 2:00 6.6° C bedeckt
So, 18.10. 20:00 8.3° C bedeckt
So, 18.10. 14:00 9.0° C bedeckt
So, 18.10. 8:00 5.2° C wolkig
Ortszeit Temperatur Wetter
Di, 20.10. 2:00 5.5° C leicht bewölkt
Di, 20.10. 1:50 5.5° C leicht bewölkt
Di, 20.10. 1:40 5.4° C leicht bewölkt
Di, 20.10. 1:30 5.9° C wolkenlos
Di, 20.10. 1:20 5.9° C wolkenlos
Di, 20.10. 1:10 6.0° C fast wolkenlos
Di, 20.10. 1:00 6.0° C leicht bewölkt
Di, 20.10. 0:30 6.3° C wolkenlos
Di, 20.10. 0:00 6.3° C wolkenlos
Mo, 19.10. 23:30 6.6° C wolkenlos
Mo, 19.10. 23:00 6.6° C wolkenlos
Ortszeit Relative Feuchte Sichtweite
Di, 20.10. 2:00 84% 28 km
Mo, 19.10. 20:00 96% 10 km
Mo, 19.10. 14:00 76% 30 km
Mo, 19.10. 8:00 97% 6 km
Mo, 19.10. 2:00 97% 7 km
So, 18.10. 20:00 92% 9 km
So, 18.10. 14:00 84% 13 km
So, 18.10. 8:00 97% 4.3 km
Ortszeit Relative Feuchte Sichtweite
Di, 20.10. 2:00 84% 28 km
Di, 20.10. 1:50 84% -
Di, 20.10. 1:40 85% -
Di, 20.10. 1:30 83% 25 km
Di, 20.10. 1:20 83% -
Di, 20.10. 1:10 83% -
Di, 20.10. 1:00 84% 26 km
Di, 20.10. 0:30 84% 27 km
Di, 20.10. 0:00 87% 20 km
Mo, 19.10. 23:30 85% 21 km
Mo, 19.10. 23:00 91% 14 km
Ortszeit Niederschlagsmenge Niederschlagsart
Di, 20.10. 2:00 0.0 l/m2 in 6 Std. -
Mo, 19.10. 20:00 0.0 l/m2 in 12 Std. -
Mo, 19.10. 14:00 0.0 l/m2 in 6 Std. -
Mo, 19.10. 8:00 0.0 l/m2 in 12 Std. -
Mo, 19.10. 2:00 0.0 l/m2 in 6 Std. -
So, 18.10. 20:00 0.7 l/m2 in 12 Std. Regen
So, 18.10. 14:00 0.0 l/m2 in 6 Std. -
So, 18.10. 8:00 0.0 l/m2 in 12 Std. -
Ortszeit Niederschlagsmenge Niederschlagsart
Di, 20.10. 2:00 0.0 l/m2 in 1 Std. -
Di, 20.10. 1:50 keine Meldung -
Di, 20.10. 1:40 keine Meldung -
Di, 20.10. 1:30 0.0 l/m2 in 1 Std. -
Di, 20.10. 1:20 keine Meldung -
Di, 20.10. 1:10 keine Meldung -
Di, 20.10. 1:00 0.0 l/m2 in 1 Std. -
Di, 20.10. 0:30 0.0 l/m2 in 1 Std. -
Di, 20.10. 0:00 0.0 l/m2 in 1 Std. -
Mo, 19.10. 23:30 0.0 l/m2 in 1 Std. -
Mo, 19.10. 23:00 0.0 l/m2 in 1 Std. -
Ortszeit Stärke Spitze Richtung
km/h Bft. km/h Grad Sektor
Di, 20.10. 2:00 11 2 18 160° S
Mo, 19.10. 20:00 7 2 22 160° S
Mo, 19.10. 14:00 13 3 24 250° W
Mo, 19.10. 8:00 11 2 19 240° SW
Mo, 19.10. 2:00 13 3 24 250° W
So, 18.10. 20:00 15 3 43 260° W
So, 18.10. 14:00 29 5 50 260° W
So, 18.10. 8:00 18 3 25 240° SW
Ortszeit Stärke Spitze Richtung
km/h Bft. km/h Grad Sektor
Di, 20.10. 2:00 11 2 18 160° S
Di, 20.10. 1:50 11 2 - 160° S
Di, 20.10. 1:40 13 3 - 140° SO
Di, 20.10. 1:30 11 2 14 130° SO
Di, 20.10. 1:20 11 2 - 130° SO
Di, 20.10. 1:10 9 2 - 130° SO
Di, 20.10. 1:00 7 2 14 140° SO
Di, 20.10. 0:30 9 2 13 140° SO
Di, 20.10. 0:00 7 2 18 150° SO
Mo, 19.10. 23:30 9 2 13 170° S
Mo, 19.10. 23:00 7 2 9 150° SO
Ortszeit Untergrenze Bedeckung Gattung
total tief tief mittel hoch
Di, 20.10. 2:00 7800 m 6/8 0/8 - - -
Mo, 19.10. 20:00 1800 m 2/8 2/8 - - -
Mo, 19.10. 14:00 630 m 7/8 7/8 - - -
Mo, 19.10. 8:00 1500 m 8/8 8/8 - - -
Mo, 19.10. 2:00 1410 m 8/8 8/8 - - -
So, 18.10. 20:00 1020 m 8/8 8/8 - - -
So, 18.10. 14:00 510 m 8/8 8/8 - - -
So, 18.10. 8:00 1500 m 5/8 5/8 - - -
Ortszeit Bedeckungsgrad in Achtel und Wolkenuntergrenze
Di, 20.10. 2:00 6(7800m)
Di, 20.10. 1:50 6(7800m)
Di, 20.10. 1:40 6(7800m)
Di, 20.10. 1:30 4(7800m)
Di, 20.10. 1:20 keine Wolken
Di, 20.10. 1:10 1(8100m)
Di, 20.10. 1:00 2(8100m) 3(8700m)
Di, 20.10. 0:30 2(8400m)
Di, 20.10. 0:00 keine Wolken
Mo, 19.10. 23:30 keine Wolken
Mo, 19.10. 23:00 keine Wolken
Ortszeit Luftdruck NN (hPa) Tendenz (hPa in 3 Std.)
Di, 20.10. 2:00 1020 - 1,5
Mo, 19.10. 20:00 1022 - 0,3
Mo, 19.10. 14:00 1023 - 0,2
Mo, 19.10. 8:00 1022 + 0,5
Mo, 19.10. 2:00 1022 + 0,8
So, 18.10. 20:00 1020 + 1,2
So, 18.10. 14:00 1019 - 0,1
So, 18.10. 8:00 1019 - 0,2
Ortszeit Luftdruck NN (hPa) Tendenz (hPa in 3 Std.)
Di, 20.10. 2:00 1020 - 1,5
Di, 20.10. 1:50 1020 keine Meldung
Di, 20.10. 1:40 1020 keine Meldung
Di, 20.10. 1:30 1020 - 1,4
Di, 20.10. 1:20 1020 keine Meldung
Di, 20.10. 1:10 1021 keine Meldung
Di, 20.10. 1:00 1021 - 1,1
Di, 20.10. 0:30 1021 - 1,2
Di, 20.10. 0:00 1021 - 1,1
Mo, 19.10. 23:30 1021 - 0,5
Mo, 19.10. 23:00 1022 - 0,2
Ortszeit Schneehöhe (cm)
Di, 20.10. 2:00 0
Mo, 19.10. 20:00 0
Mo, 19.10. 14:00 0
Mo, 19.10. 8:00 0
Mo, 19.10. 2:00 0
So, 18.10. 20:00 0
So, 18.10. 14:00 0
So, 18.10. 8:00 0
Ortszeit Schneehöhe (cm)
Di, 20.10. 2:00 0
Di, 20.10. 1:50 0
Di, 20.10. 1:40 0
Di, 20.10. 1:30 0
Di, 20.10. 1:20 0
Di, 20.10. 1:10 0
Di, 20.10. 1:00 0
Di, 20.10. 0:30 0
Di, 20.10. 0:00 0
Mo, 19.10. 23:30 0
Mo, 19.10. 23:00 0
Link zu dieser Seite / Seite empfehlen

Das Wetter in ...